Time;durP1;ratioP1;P1;durP2;ratioP2;P2;SDS_P1;SDS_P2;PMS_P1;PMS_P2;Temp;Humidity;BMP_temperature;BMP_pressure;BME280_temperature;BME280_humidity;BME280_pressure;Samples;Min_cycle;Max_cycle;Signal;HPM_P1;HPM_P2
2022/08/19 00:01:29;;;;;;;34.80;15.73;;;;;;;;;;5043654;28;20033;-83
2022/08/19 00:03:57;;;;;;;31.40;14.75;;;;;;;;;;5056471;28;20025;-83
2022/08/19 00:06:22;;;;;;;27.58;14.38;;;;;;;;;;5071584;28;20047;-83
2022/08/19 00:08:48;;;;;;;31.30;15.13;;;;;;;;;;5060173;28;20053;-83
2022/08/19 00:11:13;;;;;;;28.80;14.30;;;;;;;;;;5050520;28;20079;-84
2022/08/19 00:13:39;;;;;;;28.55;14.20;;;;;;;;;;5051558;28;20037;-83
2022/08/19 00:16:06;;;;;;;27.77;13.50;;;;;;;;;;5049923;28;20040;-83
2022/08/19 00:18:32;;;;;;;25.27;13.57;;;;;;;;;;5051457;28;20052;-83
2022/08/19 00:20:59;;;;;;;31.30;14.75;;;;;;;;;;5051626;28;20579;-83
2022/08/19 00:23:25;;;;;;;32.92;15.35;;;;;;;;;;5049409;28;20112;-82
2022/08/19 00:25:51;;;;;;;29.23;15.45;;;;;;;;;;5048210;28;20029;-82
2022/08/19 00:28:18;;;;;;;25.58;13.50;;;;;;;;;;5049533;28;20537;-83
2022/08/19 00:30:43;;;;;;;27.73;13.88;;;;;;;;;;5050929;28;20017;-82
2022/08/19 00:33:09;;;;;;;30.10;15.68;;;;;;;;;;5050326;28;20043;-83
2022/08/19 00:35:35;;;;;;;25.45;14.13;;;;;;;;;;5046909;28;20025;-82
2022/08/19 00:38:00;;;;;;;25.63;13.48;;;;;;;;;;5046285;28;20033;-83
2022/08/19 00:40:26;;;;;;;27.45;13.80;;;;;;;;;;5041710;28;20907;-83
2022/08/19 00:42:53;;;;;;;29.58;14.43;;;;;;;;;;5037826;28;20025;-82
2022/08/19 00:45:25;;;;;;;29.15;14.82;;;;;;;;;;5050736;28;20096;-83
2022/08/19 00:47:50;;;;;;;27.33;13.73;;;;;;;;;;5050863;28;20033;-82
2022/08/19 00:50:18;;;;;;;28.98;14.20;;;;;;;;;;5050703;28;20039;-82
2022/08/19 00:52:48;;;;;;;29.20;14.40;;;;;;;;;;5046785;28;20055;-82
2022/08/19 00:55:21;;;;;;;28.38;15.48;;;;;;;;;;5049315;28;20047;-83
2022/08/19 00:57:54;;;;;;;28.25;14.38;;;;;;;;;;5050824;28;20031;-83
2022/08/19 01:00:21;;;;;;;31.70;15.65;;;;;;;;;;5050825;28;20120;-83
2022/08/19 01:02:46;;;;;;;28.95;15.57;;;;;;;;;;5051009;28;20036;-83
2022/08/19 01:05:18;;;;;;;29.85;14.68;;;;;;;;;;5049600;28;20414;-83
2022/08/19 01:07:44;;;;;;;32.15;15.15;;;;;;;;;;5063329;28;20082;-82
2022/08/19 01:10:14;;;;;;;33.33;14.95;;;;;;;;;;5049697;28;20116;-82
2022/08/19 01:12:40;;;;;;;32.97;15.88;;;;;;;;;;5050816;28;20112;-83
2022/08/19 01:15:07;;;;;;;28.40;14.63;;;;;;;;;;5048679;28;20045;-82
2022/08/19 01:17:36;;;;;;;29.08;15.35;;;;;;;;;;5049127;28;20565;-82
2022/08/19 01:20:03;;;;;;;28.98;14.80;;;;;;;;;;5045369;28;20134;-82
2022/08/19 01:22:36;;;;;;;32.33;16.02;;;;;;;;;;5049555;28;20064;-83
2022/08/19 01:25:02;;;;;;;33.95;15.50;;;;;;;;;;5044448;28;20044;-83
2022/08/19 01:27:38;;;;;;;34.35;15.48;;;;;;;;;;5050834;28;20025;-82
2022/08/19 01:30:05;;;;;;;33.38;16.20;;;;;;;;;;5046594;28;20510;-83
2022/08/19 01:32:31;;;;;;;30.88;14.70;;;;;;;;;;5043810;28;20632;-83
2022/08/19 01:34:56;;;;;;;30.73;14.68;;;;;;;;;;5051447;28;20064;-83
2022/08/19 01:37:21;;;;;;;30.77;14.38;;;;;;;;;;5040743;28;20041;-82
2022/08/19 01:39:47;;;;;;;33.08;14.02;;;;;;;;;;5050449;28;20025;-82
2022/08/19 01:42:12;;;;;;;28.80;13.35;;;;;;;;;;5050264;28;20020;-83
2022/08/19 01:44:41;;;;;;;33.60;14.70;;;;;;;;;;5049468;28;20072;-83
2022/08/19 01:47:09;;;;;;;28.42;13.55;;;;;;;;;;5040526;28;20029;-83
2022/08/19 01:49:35;;;;;;;30.80;12.90;;;;;;;;;;5047118;28;20047;-83
2022/08/19 01:52:03;;;;;;;24.60;13.13;;;;;;;;;;5041695;28;20051;-83
2022/08/19 01:54:29;;;;;;;27.35;12.98;;;;;;;;;;5048977;28;20017;-83
2022/08/19 01:57:03;;;;;;;29.02;12.82;;;;;;;;;;5054006;28;20043;-83
2022/08/19 01:59:30;;;;;;;25.85;11.73;;;;;;;;;;5043663;28;20452;-83
2022/08/19 02:01:55;;;;;;;28.73;12.90;;;;;;;;;;5046972;28;20466;-82
2022/08/19 02:04:20;;;;;;;25.42;11.40;;;;;;;;;;5047760;28;20060;-83
2022/08/19 02:06:46;;;;;;;25.33;12.15;;;;;;;;;;5041528;28;20025;-82
2022/08/19 02:09:11;;;;;;;31.83;12.27;;;;;;;;;;5048291;28;20136;-82
2022/08/19 02:11:37;;;;;;;31.10;12.05;;;;;;;;;;5049150;28;20041;-83
2022/08/19 02:14:06;;;;;;;33.83;11.48;;;;;;;;;;5048473;28;20075;-82
2022/08/19 02:16:32;;;;;;;27.40;12.13;;;;;;;;;;5047455;28;20059;-82
2022/08/19 02:19:01;;;;;;;23.02;11.30;;;;;;;;;;5047914;28;20039;-82
2022/08/19 02:21:27;;;;;;;23.05;10.73;;;;;;;;;;5046611;28;20086;-83
2022/08/19 02:23:53;;;;;;;20.95;10.90;;;;;;;;;;5046955;28;20039;-82
2022/08/19 02:26:19;;;;;;;23.95;11.23;;;;;;;;;;5048933;28;20029;-82
2022/08/19 02:28:45;;;;;;;29.75;11.15;;;;;;;;;;5033810;28;20036;-82
2022/08/19 02:31:17;;;;;;;21.10;10.38;;;;;;;;;;5041251;28;20509;-83
2022/08/19 02:33:43;;;;;;;21.38;10.88;;;;;;;;;;5067244;28;20024;-82
2022/08/19 02:36:10;;;;;;;22.75;9.98;;;;;;;;;;5053956;28;20036;-82
2022/08/19 02:38:36;;;;;;;21.85;10.23;;;;;;;;;;5041144;28;20029;-83
2022/08/19 02:41:14;;;;;;;21.77;10.43;;;;;;;;;;5047478;28;20037;-82
2022/08/19 02:43:40;;;;;;;21.10;10.43;;;;;;;;;;5048728;28;20059;-82
2022/08/19 02:46:22;;;;;;;23.27;10.85;;;;;;;;;;5043638;28;20041;-83
2022/08/19 02:48:50;;;;;;;25.98;11.48;;;;;;;;;;5038419;28;20510;-83
2022/08/19 02:51:18;;;;;;;21.15;10.25;;;;;;;;;;5039545;28;20036;-83
2022/08/19 02:53:44;;;;;;;23.50;9.98;;;;;;;;;;5048649;28;20029;-83
2022/08/19 02:56:09;;;;;;;21.08;9.25;;;;;;;;;;5045046;28;20383;-83
2022/08/19 02:58:35;;;;;;;22.23;10.75;;;;;;;;;;5048226;28;20029;-83
2022/08/19 03:01:00;;;;;;;23.38;10.23;;;;;;;;;;5042896;28;20067;-83
2022/08/19 03:03:26;;;;;;;25.20;10.13;;;;;;;;;;5047660;28;20024;-82
2022/08/19 03:05:51;;;;;;;23.30;10.10;;;;;;;;;;5036422;28;20029;-82
2022/08/19 03:08:17;;;;;;;24.45;9.60;;;;;;;;;;5046668;28;20041;-82
2022/08/19 03:10:45;;;;;;;18.30;9.80;;;;;;;;;;5033654;28;20068;-83
2022/08/19 03:13:19;;;;;;;20.80;9.40;;;;;;;;;;5042118;28;20525;-83
2022/08/19 03:15:46;;;;;;;23.33;9.60;;;;;;;;;;5046583;28;20025;-83
2022/08/19 03:18:13;;;;;;;24.02;9.98;;;;;;;;;;5048396;28;20048;-83
2022/08/19 03:20:48;;;;;;;20.15;9.20;;;;;;;;;;5047790;28;20388;-83
2022/08/19 03:23:15;;;;;;;19.33;8.95;;;;;;;;;;5046040;28;20025;-83
2022/08/19 03:25:43;;;;;;;19.95;9.57;;;;;;;;;;5046594;28;20041;-83
2022/08/19 03:28:13;;;;;;;17.75;8.82;;;;;;;;;;5046336;28;20021;-83
2022/08/19 03:30:40;;;;;;;21.08;9.50;;;;;;;;;;5046262;28;20021;-83
2022/08/19 03:33:06;;;;;;;15.63;8.13;;;;;;;;;;5034533;28;20036;-83
2022/08/19 03:35:32;;;;;;;17.38;8.05;;;;;;;;;;5042542;28;20022;-83
2022/08/19 03:37:59;;;;;;;18.67;8.50;;;;;;;;;;5045956;28;20082;-83
2022/08/19 03:40:25;;;;;;;19.15;7.15;;;;;;;;;;5054558;28;20063;-84
2022/08/19 03:42:50;;;;;;;17.85;7.75;;;;;;;;;;5046322;28;20509;-83
2022/08/19 03:45:16;;;;;;;17.55;8.13;;;;;;;;;;5037770;28;20078;-83
2022/08/19 03:47:41;;;;;;;15.50;7.50;;;;;;;;;;5052057;28;20409;-83
2022/08/19 03:50:08;;;;;;;14.45;7.28;;;;;;;;;;5050519;28;20094;-83
2022/08/19 03:52:35;;;;;;;13.98;7.10;;;;;;;;;;5050824;28;20033;-83
2022/08/19 03:55:01;;;;;;;13.43;7.30;;;;;;;;;;5052131;28;20052;-83
2022/08/19 03:57:27;;;;;;;14.05;7.03;;;;;;;;;;5066972;28;20024;-83
2022/08/19 03:59:52;;;;;;;14.13;6.53;;;;;;;;;;5042019;28;20037;-83
2022/08/19 04:02:17;;;;;;;11.23;6.28;;;;;;;;;;5049151;28;20044;-83
2022/08/19 04:04:43;;;;;;;15.95;6.40;;;;;;;;;;5051023;28;20442;-83
2022/08/19 04:07:12;;;;;;;15.98;7.25;;;;;;;;;;5051064;28;20052;-83
2022/08/19 04:09:38;;;;;;;13.05;7.20;;;;;;;;;;5051844;28;20029;-83
2022/08/19 04:12:05;;;;;;;13.20;6.75;;;;;;;;;;5051347;28;20425;-83
2022/08/19 04:14:31;;;;;;;15.15;6.90;;;;;;;;;;5050313;28;20095;-83
2022/08/19 04:16:58;;;;;;;11.98;6.85;;;;;;;;;;5049330;28;20490;-83
2022/08/19 04:19:24;;;;;;;12.77;6.43;;;;;;;;;;5051094;28;20029;-82
2022/08/19 04:21:51;;;;;;;16.58;7.28;;;;;;;;;;5050016;28;20508;-83
2022/08/19 04:24:18;;;;;;;13.32;7.50;;;;;;;;;;5049666;28;20013;-83
2022/08/19 04:26:44;;;;;;;15.35;7.70;;;;;;;;;;5049880;28;20514;-82
2022/08/19 04:29:15;;;;;;;14.88;8.02;;;;;;;;;;5050219;28;20044;-82
2022/08/19 04:31:43;;;;;;;18.20;7.82;;;;;;;;;;5049540;28;20029;-83
2022/08/19 04:34:10;;;;;;;13.23;7.45;;;;;;;;;;5044502;28;20034;-83
2022/08/19 04:36:41;;;;;;;18.13;8.57;;;;;;;;;;5055828;28;20028;-83
2022/08/19 04:39:10;;;;;;;14.43;7.82;;;;;;;;;;5049685;28;20038;-82
2022/08/19 04:44:20;;;;;;;16.80;8.27;;;;;;;;;;5050504;28;20072;-83
2022/08/19 04:46:47;;;;;;;17.80;8.23;;;;;;;;;;5049701;28;20044;-83
2022/08/19 04:49:14;;;;;;;15.13;8.25;;;;;;;;;;5047284;28;20033;-83
2022/08/19 04:51:42;;;;;;;17.08;7.88;;;;;;;;;;5049769;28;20021;-82
2022/08/19 04:54:08;;;;;;;16.70;7.65;;;;;;;;;;5050994;28;20044;-83
2022/08/19 04:56:33;;;;;;;15.38;7.25;;;;;;;;;;5049201;28;20055;-82
2022/08/19 04:59:03;;;;;;;15.35;7.75;;;;;;;;;;5045529;28;20411;-83
2022/08/19 05:01:31;;;;;;;15.75;7.50;;;;;;;;;;5047250;28;20037;-83
2022/08/19 05:03:58;;;;;;;18.80;7.82;;;;;;;;;;5050653;28;20051;-83
2022/08/19 05:06:25;;;;;;;14.10;7.22;;;;;;;;;;5047226;28;20047;-83
2022/08/19 05:08:51;;;;;;;19.35;8.38;;;;;;;;;;5050649;28;20033;-83
2022/08/19 05:11:20;;;;;;;15.38;7.75;;;;;;;;;;5050202;28;20116;-83
2022/08/19 05:13:48;;;;;;;14.25;7.72;;;;;;;;;;5048591;28;20041;-83
2022/08/19 05:16:15;;;;;;;21.05;8.00;;;;;;;;;;5049375;28;20033;-83
2022/08/19 05:24:09;;;;;;;16.10;7.20;;;;;;;;;;5048918;28;20044;-83
2022/08/19 05:26:40;;;;;;;14.15;7.45;;;;;;;;;;5050111;28;20033;-83
2022/08/19 05:29:08;;;;;;;14.80;7.68;;;;;;;;;;5039094;28;20426;-83
2022/08/19 05:31:35;;;;;;;14.35;7.40;;;;;;;;;;5053970;28;20082;-83
2022/08/19 05:34:01;;;;;;;16.33;7.32;;;;;;;;;;5066897;28;20036;-83
2022/08/19 05:36:27;;;;;;;12.88;7.53;;;;;;;;;;5040497;28;20037;-83
2022/08/19 05:38:54;;;;;;;17.35;7.65;;;;;;;;;;5055639;28;20029;-82
2022/08/19 05:41:23;;;;;;;15.60;7.45;;;;;;;;;;5046764;28;20037;-83
2022/08/19 05:43:49;;;;;;;15.85;6.93;;;;;;;;;;5049329;28;20133;-83
2022/08/19 05:46:19;;;;;;;15.52;7.18;;;;;;;;;;5049781;28;20033;-82
2022/08/19 05:48:45;;;;;;;16.52;7.57;;;;;;;;;;5050184;28;20025;-82
2022/08/19 05:51:11;;;;;;;15.18;7.70;;;;;;;;;;5049899;28;20052;-82
2022/08/19 05:53:37;;;;;;;15.90;7.05;;;;;;;;;;5049616;28;20682;-81
2022/08/19 05:56:11;;;;;;;18.17;7.75;;;;;;;;;;5049835;28;20124;-83
2022/08/19 05:58:37;;;;;;;20.55;8.23;;;;;;;;;;5040116;28;20041;-83
2022/08/19 06:01:11;;;;;;;14.73;6.72;;;;;;;;;;5033059;28;20089;-83
2022/08/19 06:03:37;;;;;;;13.38;6.57;;;;;;;;;;5044177;28;20032;-82
2022/08/19 06:06:04;;;;;;;15.50;7.05;;;;;;;;;;5044450;28;20070;-82
2022/08/19 06:08:30;;;;;;;11.10;6.00;;;;;;;;;;5045034;28;20622;-83
2022/08/19 06:10:56;;;;;;;15.68;6.65;;;;;;;;;;5048697;28;20033;-82
2022/08/19 06:13:22;;;;;;;19.05;6.70;;;;;;;;;;5048198;28;20041;-83
2022/08/19 06:15:48;;;;;;;12.15;6.57;;;;;;;;;;5047521;28;20054;-83
2022/08/19 06:18:14;;;;;;;16.88;7.82;;;;;;;;;;5047111;28;20434;-83
2022/08/19 06:20:41;;;;;;;14.25;5.82;;;;;;;;;;5059509;28;20052;-83
2022/08/19 06:23:06;;;;;;;12.07;6.07;;;;;;;;;;5063208;28;20036;-84
2022/08/19 06:25:32;;;;;;;14.00;5.95;;;;;;;;;;5049462;28;20036;-83
2022/08/19 06:27:57;;;;;;;13.77;5.60;;;;;;;;;;5049424;28;20029;-83
2022/08/19 06:30:23;;;;;;;14.40;6.30;;;;;;;;;;5046896;28;20029;-84
2022/08/19 06:32:48;;;;;;;12.90;6.88;;;;;;;;;;5045724;28;20120;-83
2022/08/19 06:35:14;;;;;;;12.77;6.05;;;;;;;;;;5046607;28;20047;-84
2022/08/19 06:37:40;;;;;;;15.38;6.57;;;;;;;;;;5043030;28;20829;-83
2022/08/19 06:40:08;;;;;;;14.15;6.13;;;;;;;;;;5030340;28;20125;-82
2022/08/19 06:42:34;;;;;;;13.48;6.05;;;;;;;;;;5034728;28;20075;-83
2022/08/19 06:45:02;;;;;;;13.88;5.78;;;;;;;;;;5032761;28;20471;-82
2022/08/19 06:47:28;;;;;;;12.45;5.55;;;;;;;;;;5040104;28;20044;-83
2022/08/19 06:49:59;;;;;;;12.57;6.00;;;;;;;;;;5027714;28;20118;-84
2022/08/19 06:52:25;;;;;;;16.55;7.00;;;;;;;;;;5026846;28;20048;-83
2022/08/19 06:54:50;;;;;;;11.77;5.95;;;;;;;;;;5031137;28;20460;-83
2022/08/19 06:57:16;;;;;;;13.55;6.38;;;;;;;;;;5031812;28;20033;-83
2022/08/19 06:59:41;;;;;;;14.30;6.20;;;;;;;;;;5030726;28;20472;-82
2022/08/19 07:02:07;;;;;;;9.05;5.57;;;;;;;;;;5033240;28;20061;-82
2022/08/19 07:04:34;;;;;;;13.68;5.93;;;;;;;;;;5030413;28;20051;-81
2022/08/19 07:07:05;;;;;;;13.57;6.28;;;;;;;;;;5026906;28;20143;-81
2022/08/19 07:09:31;;;;;;;12.13;5.57;;;;;;;;;;5029768;28;20482;-81
2022/08/19 07:11:57;;;;;;;14.40;5.95;;;;;;;;;;5028144;28;20180;-81
2022/08/19 07:14:26;;;;;;;14.52;5.35;;;;;;;;;;5030470;28;20045;-82
2022/08/19 07:16:54;;;;;;;13.65;5.97;;;;;;;;;;5029985;28;20639;-82
2022/08/19 07:19:21;;;;;;;11.35;4.97;;;;;;;;;;5029174;28;20133;-81
2022/08/19 07:21:48;;;;;;;9.40;5.45;;;;;;;;;;5026009;28;20482;-82
2022/08/19 07:24:15;;;;;;;11.52;5.22;;;;;;;;;;5042616;28;20413;-82
2022/08/19 07:26:43;;;;;;;11.38;5.57;;;;;;;;;;5042738;28;20060;-81
2022/08/19 07:29:09;;;;;;;11.50;5.93;;;;;;;;;;5038836;28;20079;-81
2022/08/19 07:31:36;;;;;;;13.57;5.43;;;;;;;;;;5040413;28;20044;-82
2022/08/19 07:34:06;;;;;;;12.40;5.55;;;;;;;;;;5040487;28;20103;-82
2022/08/19 07:36:34;;;;;;;11.30;5.43;;;;;;;;;;5046894;28;20514;-82
2022/08/19 07:39:03;;;;;;;8.68;5.20;;;;;;;;;;5037020;28;20041;-82
2022/08/19 07:41:31;;;;;;;10.05;5.47;;;;;;;;;;5043046;28;20127;-82
2022/08/19 07:43:57;;;;;;;15.13;5.95;;;;;;;;;;5034852;28;20045;-81
2022/08/19 07:46:23;;;;;;;10.20;5.57;;;;;;;;;;5034939;28;20037;-81
2022/08/19 07:48:50;;;;;;;10.88;5.03;;;;;;;;;;5041702;28;20037;-82
2022/08/19 07:51:20;;;;;;;9.90;4.93;;;;;;;;;;5034151;28;20052;-82
2022/08/19 07:53:47;;;;;;;7.55;4.13;;;;;;;;;;5033356;28;20122;-82
2022/08/19 07:56:14;;;;;;;9.45;4.20;;;;;;;;;;5037048;28;20037;-83
2022/08/19 07:58:43;;;;;;;8.98;5.05;;;;;;;;;;5041422;28;20041;-84
2022/08/19 08:01:11;;;;;;;10.77;4.05;;;;;;;;;;5037573;28;20028;-81
2022/08/19 08:09:22;;;;;;;8.55;4.18;;;;;;;;;;5032000;28;20128;-80
2022/08/19 08:11:51;;;;;;;8.65;4.30;;;;;;;;;;5037395;28;20037;-80
2022/08/19 08:14:22;;;;;;;7.20;3.65;;;;;;;;;;5037192;28;20049;-80
2022/08/19 08:16:50;;;;;;;7.95;4.20;;;;;;;;;;5040449;28;20474;-78
2022/08/19 08:19:18;;;;;;;9.05;4.15;;;;;;;;;;5037370;28;20032;-79
2022/08/19 08:21:43;;;;;;;8.07;3.58;;;;;;;;;;5035526;28;20052;-80
2022/08/19 08:24:10;;;;;;;6.18;3.38;;;;;;;;;;5034536;28;20041;-80
2022/08/19 08:26:35;;;;;;;7.88;3.60;;;;;;;;;;5042117;28;20040;-80
2022/08/19 08:29:01;;;;;;;9.77;4.07;;;;;;;;;;5046369;28;20048;-80
2022/08/19 08:31:27;;;;;;;6.35;3.40;;;;;;;;;;5048375;28;20040;-80
2022/08/19 08:33:52;;;;;;;10.35;3.72;;;;;;;;;;5043472;28;20082;-79
2022/08/19 08:36:18;;;;;;;6.60;3.60;;;;;;;;;;5042973;28;20273;-80
2022/08/19 08:38:47;;;;;;;6.45;3.42;;;;;;;;;;5043847;28;20114;-80
2022/08/19 08:41:40;;;;;;;7.57;3.50;;;;;;;;;;5050903;28;20477;-80
2022/08/19 08:44:07;;;;;;;11.18;3.60;;;;;;;;;;5034635;28;20536;-80
2022/08/19 08:46:43;;;;;;;8.23;3.60;;;;;;;;;;5041640;28;20033;-81
2022/08/19 08:49:11;;;;;;;5.57;2.95;;;;;;;;;;5039834;28;20033;-81
2022/08/19 08:51:47;;;;;;;7.93;3.47;;;;;;;;;;5044488;28;20045;-80
2022/08/19 08:54:17;;;;;;;9.15;3.42;;;;;;;;;;5041014;28;20041;-80
2022/08/19 08:56:44;;;;;;;7.28;3.30;;;;;;;;;;5044233;28;20113;-80
2022/08/19 08:59:18;;;;;;;8.70;3.70;;;;;;;;;;5044752;28;20045;-80
2022/08/19 09:01:43;;;;;;;5.15;3.63;;;;;;;;;;5043923;28;20040;-80
2022/08/19 09:04:12;;;;;;;5.22;3.53;;;;;;;;;;5044625;28;20409;-80
2022/08/19 09:06:55;;;;;;;7.60;3.78;;;;;;;;;;5043137;28;20032;-80
2022/08/19 09:09:24;;;;;;;;;;;;;;;;;;5047362;28;20049;-80
2022/08/19 09:11:52;;;;;;;6.68;3.55;;;;;;;;;;5044124;28;20011;-80
2022/08/19 09:14:41;;;;;;;6.18;3.25;;;;;;;;;;5044674;28;20045;-79
2022/08/19 09:17:09;;;;;;;7.35;3.80;;;;;;;;;;5043844;28;20044;-80
2022/08/19 09:19:46;;;;;;;6.15;3.88;;;;;;;;;;5028734;28;20409;-80
2022/08/19 09:22:11;;;;;;;7.50;4.25;;;;;;;;;;5041779;28;20021;-80
2022/08/19 09:24:38;;;;;;;6.15;4.15;;;;;;;;;;5036492;28;20047;-80
2022/08/19 09:27:03;;;;;;;8.00;4.65;;;;;;;;;;5041408;28;20053;-81
2022/08/19 09:29:30;;;;;;;7.57;4.78;;;;;;;;;;5038199;28;20146;-81
2022/08/19 09:31:55;;;;;;;11.57;5.00;;;;;;;;;;5041702;28;20057;-81
2022/08/19 09:34:21;;;;;;;14.45;5.00;;;;;;;;;;5031727;28;20072;-80
2022/08/19 09:36:47;;;;;;;10.02;4.90;;;;;;;;;;5026126;28;20100;-81
2022/08/19 09:39:12;;;;;;;10.07;4.80;;;;;;;;;;5028896;28;20409;-80
2022/08/19 09:41:37;;;;;;;11.35;4.47;;;;;;;;;;5033492;28;20064;-81
2022/08/19 09:44:03;;;;;;;8.88;3.95;;;;;;;;;;5044522;28;20099;-81
2022/08/19 09:46:30;;;;;;;8.00;4.00;;;;;;;;;;5049024;28;20025;-80
2022/08/19 09:48:58;;;;;;;7.70;3.45;;;;;;;;;;5067002;28;20047;-81
2022/08/19 09:51:28;;;;;;;10.15;3.72;;;;;;;;;;5059985;28;20040;-81
2022/08/19 09:53:54;;;;;;;6.68;3.67;;;;;;;;;;5042170;28;20202;-80
2022/08/19 09:56:20;;;;;;;6.72;3.30;;;;;;;;;;5042885;28;20083;-82
2022/08/19 09:58:48;;;;;;;8.38;3.75;;;;;;;;;;5047334;28;20037;-82
2022/08/19 10:01:23;;;;;;;8.27;4.07;;;;;;;;;;5040447;28;20028;-83
2022/08/19 10:03:52;;;;;;;6.80;3.85;;;;;;;;;;5048350;28;20131;-82
2022/08/19 10:06:18;;;;;;;6.93;3.97;;;;;;;;;;5045595;28;20029;-82
2022/08/19 10:08:44;;;;;;;7.63;3.55;;;;;;;;;;5037194;28;20099;-82
2022/08/19 10:11:10;;;;;;;7.85;4.30;;;;;;;;;;5044926;28;20033;-82
2022/08/19 10:13:36;;;;;;;7.47;3.90;;;;;;;;;;5050867;28;20028;-82
2022/08/19 10:16:06;;;;;;;6.45;3.45;;;;;;;;;;5043696;28;20067;-82
2022/08/19 10:18:33;;;;;;;5.80;3.75;;;;;;;;;;5039637;28;20061;-83
2022/08/19 10:21:11;;;;;;;9.73;4.03;;;;;;;;;;5033870;28;20135;-84
2022/08/19 10:23:39;;;;;;;6.82;3.60;;;;;;;;;;5046556;28;20552;-82
2022/08/19 10:26:05;;;;;;;4.93;3.00;;;;;;;;;;5046339;28;20040;-83
2022/08/19 10:28:38;;;;;;;8.15;3.55;;;;;;;;;;5026498;28;20041;-82
2022/08/19 10:31:09;;;;;;;6.57;3.53;;;;;;;;;;5038496;28;20470;-82
2022/08/19 10:33:36;;;;;;;4.18;2.90;;;;;;;;;;5033709;28;20191;-83
2022/08/19 10:36:05;;;;;;;5.93;3.03;;;;;;;;;;5050245;28;20041;-83
2022/08/19 10:38:31;;;;;;;5.65;3.13;;;;;;;;;;5035460;28;20505;-84
2022/08/19 10:40:57;;;;;;;4.20;3.05;;;;;;;;;;5044627;28;20116;-82
2022/08/19 10:43:23;;;;;;;5.22;3.20;;;;;;;;;;5046200;28;20029;-82
2022/08/19 10:45:58;;;;;;;5.38;3.58;;;;;;;;;;5045468;28;20105;-81
2022/08/19 10:48:24;;;;;;;5.32;2.90;;;;;;;;;;5043644;28;20037;-83
2022/08/19 10:53:34;;;;;;;6.88;3.10;;;;;;;;;;5048477;28;20649;-83
2022/08/19 10:58:45;;;;;;;7.60;3.00;;;;;;;;;;5038190;28;20040;-84
2022/08/19 11:01:11;;;;;;;4.63;2.63;;;;;;;;;;5041344;28;20025;-83
2022/08/19 11:03:37;;;;;;;6.30;3.33;;;;;;;;;;5048871;28;20440;-83
2022/08/19 11:06:07;;;;;;;4.93;3.25;;;;;;;;;;5041812;28;20450;-84
2022/08/19 11:08:34;;;;;;;8.18;3.08;;;;;;;;;;5045688;28;20060;-85
2022/08/19 11:11:02;;;;;;;11.65;5.28;;;;;;;;;;5038279;28;20124;-85
2022/08/19 11:13:29;;;;;;;4.03;2.90;;;;;;;;;;5044954;28;20037;-86
2022/08/19 11:16:07;;;;;;;8.98;3.70;;;;;;;;;;5040866;28;20515;-83
2022/08/19 11:18:33;;;;;;;4.07;2.75;;;;;;;;;;5038790;28;20057;-83
2022/08/19 11:21:24;;;;;;;5.78;2.95;;;;;;;;;;5033523;28;20074;-84
2022/08/19 11:23:52;;;;;;;5.30;2.90;;;;;;;;;;5043333;28;20118;-83
2022/08/19 11:26:20;;;;;;;5.82;2.83;;;;;;;;;;5043357;28;20037;-84
2022/08/19 11:28:46;;;;;;;5.78;2.83;;;;;;;;;;5058062;28;20067;-83
2022/08/19 11:31:16;;;;;;;4.13;2.83;;;;;;;;;;5044161;28;20525;-83
2022/08/19 11:33:41;;;;;;;3.72;2.40;;;;;;;;;;5041079;28;20075;-83
2022/08/19 11:36:10;;;;;;;5.72;3.10;;;;;;;;;;5049377;28;20150;-83
2022/08/19 11:38:36;;;;;;;4.22;2.97;;;;;;;;;;5042250;28;20082;-83
2022/08/19 11:41:05;;;;;;;4.00;2.55;;;;;;;;;;5045540;28;20522;-83
2022/08/19 11:43:31;;;;;;;2.67;2.13;;;;;;;;;;5046330;28;20394;-83
2022/08/19 11:45:57;;;;;;;3.90;2.63;;;;;;;;;;5044648;28;20074;-83
2022/08/19 11:48:24;;;;;;;3.08;2.20;;;;;;;;;;5032176;28;20037;-83
2022/08/19 11:50:50;;;;;;;2.78;1.90;;;;;;;;;;5042462;28;20116;-82
2022/08/19 11:53:18;;;;;;;3.22;2.00;;;;;;;;;;5041583;28;20037;-84
2022/08/19 11:55:44;;;;;;;2.85;1.42;;;;;;;;;;5039300;28;20037;-83
2022/08/19 11:58:10;;;;;;;1.50;1.25;;;;;;;;;;5041506;28;20104;-83
2022/08/19 12:00:37;;;;;;;2.25;1.15;;;;;;;;;;5038860;28;20041;-83
2022/08/19 12:03:03;;;;;;;1.92;1.10;;;;;;;;;;5049837;28;20033;-83
2022/08/19 12:05:28;;;;;;;1.25;0.85;;;;;;;;;;5048944;28;20534;-83
2022/08/19 12:07:54;;;;;;;0.95;0.90;;;;;;;;;;5042562;28;20052;-83
2022/08/19 12:10:20;;;;;;;1.17;1.08;;;;;;;;;;5044887;28;20564;-84
2022/08/19 12:12:46;;;;;;;1.55;1.20;;;;;;;;;;5040738;28;20068;-84
2022/08/19 12:15:12;;;;;;;1.20;1.00;;;;;;;;;;5046420;28;20291;-83
2022/08/19 12:17:37;;;;;;;2.03;1.15;;;;;;;;;;5042987;28;20306;-84
2022/08/19 12:20:05;;;;;;;1.60;1.20;;;;;;;;;;5034618;28;20037;-83
2022/08/19 12:22:30;;;;;;;1.40;1.20;;;;;;;;;;5051994;28;20530;-83
2022/08/19 12:24:56;;;;;;;2.17;1.40;;;;;;;;;;5051671;28;20091;-82
2022/08/19 12:27:21;;;;;;;1.50;1.10;;;;;;;;;;5045989;28;20068;-82
2022/08/19 12:29:47;;;;;;;1.15;1.05;;;;;;;;;;5045914;28;20131;-82
2022/08/19 12:32:12;;;;;;;1.55;1.20;;;;;;;;;;5045149;28;20047;-83
2022/08/19 12:34:38;;;;;;;1.52;1.20;;;;;;;;;;5041448;28;20056;-83
2022/08/19 12:37:05;;;;;;;2.30;1.40;;;;;;;;;;5040800;28;20025;-83
2022/08/19 12:39:37;;;;;;;1.88;1.35;;;;;;;;;;5037143;28;20425;-83
2022/08/19 12:42:03;;;;;;;2.60;1.30;;;;;;;;;;5036965;28;20462;-83
2022/08/19 12:44:30;;;;;;;2.22;1.50;;;;;;;;;;5039338;28;20040;-83
2022/08/19 12:46:56;;;;;;;3.08;1.73;;;;;;;;;;5039437;28;20746;-83
2022/08/19 12:49:21;;;;;;;1.98;1.65;;;;;;;;;;5043340;28;20029;-84
2022/08/19 12:51:47;;;;;;;2.45;1.90;;;;;;;;;;5043136;28;20032;-83
2022/08/19 12:54:12;;;;;;;3.45;1.70;;;;;;;;;;5047963;28;20510;-83
2022/08/19 12:56:38;;;;;;;6.00;1.50;;;;;;;;;;5040583;28;20033;-81
2022/08/19 12:59:04;;;;;;;4.22;1.40;;;;;;;;;;5040896;28;20518;-81
2022/08/19 13:01:32;;;;;;;1.65;1.08;;;;;;;;;;5042465;28;20029;-82
2022/08/19 13:03:58;;;;;;;3.78;1.10;;;;;;;;;;5041852;28;20402;-83
2022/08/19 13:06:23;;;;;;;1.98;1.33;;;;;;;;;;5041722;28;20131;-83
2022/08/19 13:08:49;;;;;;;2.75;1.52;;;;;;;;;;5061191;28;20033;-83
2022/08/19 13:11:18;;;;;;;2.78;1.20;;;;;;;;;;5041059;28;20124;-83
2022/08/19 13:13:45;;;;;;;2.08;1.38;;;;;;;;;;5040749;28;20453;-83
2022/08/19 13:16:12;;;;;;;2.70;1.50;;;;;;;;;;5041302;28;20025;-83
2022/08/19 13:18:39;;;;;;;3.25;1.63;;;;;;;;;;5041926;28;20125;-83
2022/08/19 13:21:07;;;;;;;3.40;1.30;;;;;;;;;;5035714;28;20080;-82
2022/08/19 13:23:35;;;;;;;1.63;1.38;;;;;;;;;;5036254;28;20033;-81
2022/08/19 13:26:04;;;;;;;2.33;1.40;;;;;;;;;;5035800;28;20124;-81
2022/08/19 13:33:10;;;;;;;3.00;1.77;;;;;;;;;;5036561;28;20032;-80
2022/08/19 13:34:02;;;;;;;4.57;1.92;;;;;;;;;;5043223;28;20099;-83
2022/08/19 13:36:27;;;;;;;2.13;1.65;;;;;;;;;;5041981;28;20769;-85
2022/08/19 13:38:53;;;;;;;5.03;1.80;;;;;;;;;;5039475;28;20045;-83
2022/08/19 13:41:19;;;;;;;2.70;1.40;;;;;;;;;;5041001;28;20033;-83
2022/08/19 13:43:44;;;;;;;3.95;2.10;;;;;;;;;;5043587;28;20105;-84
2022/08/19 13:46:13;;;;;;;2.38;1.70;;;;;;;;;;5047575;28;20040;-85
2022/08/19 13:48:40;;;;;;;2.47;1.80;;;;;;;;;;5042412;28;20737;-87
2022/08/19 13:51:09;;;;;;;2.83;1.65;;;;;;;;;;5039056;28;20166;-84
2022/08/19 13:53:39;;;;;;;2.55;1.80;;;;;;;;;;5041341;28;20105;-85
2022/08/19 13:56:13;;;;;;;2.70;1.77;;;;;;;;;;5040056;28;20041;-84
2022/08/19 13:58:39;;;;;;;6.28;1.70;;;;;;;;;;5036123;28;20028;-84
2022/08/19 14:01:05;;;;;;;4.97;1.90;;;;;;;;;;5051852;28;20033;-84
2022/08/19 14:03:32;;;;;;;3.28;2.33;;;;;;;;;;5035112;28;20033;-84
2022/08/19 14:05:58;;;;;;;3.20;2.10;;;;;;;;;;5052969;28;20053;-84
2022/08/19 14:08:24;;;;;;;5.15;2.30;;;;;;;;;;5051606;28;20052;-85
2022/08/19 14:10:50;;;;;;;3.83;2.60;;;;;;;;;;5060176;28;20032;-84
2022/08/19 14:13:18;;;;;;;3.15;1.85;;;;;;;;;;5065858;28;20041;-84
2022/08/19 14:15:44;;;;;;;5.15;1.88;;;;;;;;;;5048193;28;20049;-84
2022/08/19 14:18:10;;;;;;;2.38;1.90;;;;;;;;;;5043530;28;20057;-84
2022/08/19 14:20:35;;;;;;;3.10;1.98;;;;;;;;;;5037753;28;20044;-84
2022/08/19 14:23:01;;;;;;;3.65;1.90;;;;;;;;;;5040757;28;20136;-84
2022/08/19 14:25:29;;;;;;;4.00;1.77;;;;;;;;;;5038110;28;20036;-85
2022/08/19 14:27:56;;;;;;;2.58;1.63;;;;;;;;;;5042920;28;20041;-84
2022/08/19 14:30:27;;;;;;;2.63;1.75;;;;;;;;;;5034176;28;20126;-85
2022/08/19 14:32:55;;;;;;;3.15;2.08;;;;;;;;;;5038399;28;20056;-84
2022/08/19 14:35:21;;;;;;;2.45;1.83;;;;;;;;;;5046589;28;20048;-83
2022/08/19 14:37:48;;;;;;;3.67;2.30;;;;;;;;;;5036419;28;20632;-84
2022/08/19 14:40:25;;;;;;;2.53;2.00;;;;;;;;;;5041017;28;20029;-84
2022/08/19 14:42:51;;;;;;;3.67;2.30;;;;;;;;;;5043988;28;20075;-85
2022/08/19 14:45:16;;;;;;;3.53;2.50;;;;;;;;;;5037567;28;20058;-82
2022/08/19 14:47:42;;;;;;;6.10;2.30;;;;;;;;;;5036300;28;20688;-82
2022/08/19 14:50:09;;;;;;;3.53;2.60;;;;;;;;;;5039560;28;20087;-81
2022/08/19 14:52:35;;;;;;;4.38;2.83;;;;;;;;;;5036155;28;20037;-82
2022/08/19 14:55:00;;;;;;;4.60;3.25;;;;;;;;;;5041780;28;20047;-82
2022/08/19 14:57:26;;;;;;;5.43;3.45;;;;;;;;;;5045820;28;20475;-82